sensor_id;sensor_type;location;lat;lon;timestamp;P1;durP1;ratioP1;P2;durP2;ratioP2
8466;SDS011;4270;48.148;11.648;2023-06-14T00:02:22;5.43;;;4.03;;
8466;SDS011;4270;48.148;11.648;2023-06-14T00:04:47;6.80;;;3.67;;
8466;SDS011;4270;48.148;11.648;2023-06-14T00:07:13;7.17;;;4.03;;
8466;SDS011;4270;48.148;11.648;2023-06-14T00:09:38;6.77;;;3.77;;
8466;SDS011;4270;48.148;11.648;2023-06-14T00:12:04;4.70;;;3.80;;
8466;SDS011;4270;48.148;11.648;2023-06-14T00:14:29;7.13;;;4.60;;
8466;SDS011;4270;48.148;11.648;2023-06-14T00:16:54;5.70;;;3.80;;
8466;SDS011;4270;48.148;11.648;2023-06-14T00:19:23;5.50;;;4.07;;
8466;SDS011;4270;48.148;11.648;2023-06-14T00:21:48;5.80;;;4.17;;
8466;SDS011;4270;48.148;11.648;2023-06-14T00:24:13;8.77;;;4.30;;
8466;SDS011;4270;48.148;11.648;2023-06-14T00:26:39;5.33;;;3.57;;
8466;SDS011;4270;48.148;11.648;2023-06-14T00:29:04;4.23;;;3.83;;
8466;SDS011;4270;48.148;11.648;2023-06-14T00:31:30;4.13;;;3.73;;
8466;SDS011;4270;48.148;11.648;2023-06-14T00:33:55;6.70;;;4.37;;
8466;SDS011;4270;48.148;11.648;2023-06-14T00:36:20;5.47;;;4.17;;
8466;SDS011;4270;48.148;11.648;2023-06-14T00:38:45;5.87;;;4.13;;
8466;SDS011;4270;48.148;11.648;2023-06-14T00:41:10;7.00;;;4.20;;
8466;SDS011;4270;48.148;11.648;2023-06-14T00:43:36;4.77;;;3.60;;
8466;SDS011;4270;48.148;11.648;2023-06-14T00:46:01;3.83;;;3.40;;
8466;SDS011;4270;48.148;11.648;2023-06-14T00:48:26;5.13;;;3.73;;
8466;SDS011;4270;48.148;11.648;2023-06-14T00:50:52;6.33;;;3.73;;
8466;SDS011;4270;48.148;11.648;2023-06-14T00:53:17;4.70;;;3.77;;
8466;SDS011;4270;48.148;11.648;2023-06-14T00:55:43;5.20;;;4.03;;
8466;SDS011;4270;48.148;11.648;2023-06-14T00:58:09;5.90;;;4.40;;
8466;SDS011;4270;48.148;11.648;2023-06-14T01:00:34;5.77;;;4.23;;
8466;SDS011;4270;48.148;11.648;2023-06-14T01:03:00;4.83;;;3.50;;
8466;SDS011;4270;48.148;11.648;2023-06-14T01:05:26;5.13;;;3.93;;
8466;SDS011;4270;48.148;11.648;2023-06-14T01:10:39;6.10;;;3.70;;
8466;SDS011;4270;48.148;11.648;2023-06-14T01:15:31;6.47;;;4.30;;
8466;SDS011;4270;48.148;11.648;2023-06-14T01:17:56;5.00;;;4.07;;
8466;SDS011;4270;48.148;11.648;2023-06-14T01:20:28;6.77;;;4.50;;
8466;SDS011;4270;48.148;11.648;2023-06-14T01:22:54;8.10;;;4.57;;
8466;SDS011;4270;48.148;11.648;2023-06-14T01:25:20;6.40;;;4.03;;
8466;SDS011;4270;48.148;11.648;2023-06-14T01:27:48;6.30;;;5.00;;
8466;SDS011;4270;48.148;11.648;2023-06-14T01:30:14;6.10;;;4.40;;
8466;SDS011;4270;48.148;11.648;2023-06-14T01:32:40;7.00;;;4.70;;
8466;SDS011;4270;48.148;11.648;2023-06-14T01:35:05;7.03;;;4.37;;
8466;SDS011;4270;48.148;11.648;2023-06-14T01:37:30;7.13;;;3.87;;
8466;SDS011;4270;48.148;11.648;2023-06-14T01:39:56;5.60;;;3.90;;
8466;SDS011;4270;48.148;11.648;2023-06-14T01:42:21;5.90;;;4.50;;
8466;SDS011;4270;48.148;11.648;2023-06-14T01:44:48;7.17;;;4.50;;
8466;SDS011;4270;48.148;11.648;2023-06-14T01:47:14;7.40;;;4.00;;
8466;SDS011;4270;48.148;11.648;2023-06-14T01:49:39;6.20;;;4.40;;
8466;SDS011;4270;48.148;11.648;2023-06-14T01:52:05;7.67;;;4.80;;
8466;SDS011;4270;48.148;11.648;2023-06-14T01:54:31;5.60;;;4.00;;
8466;SDS011;4270;48.148;11.648;2023-06-14T01:56:56;5.68;;;4.38;;
8466;SDS011;4270;48.148;11.648;2023-06-14T01:59:21;5.00;;;4.07;;
8466;SDS011;4270;48.148;11.648;2023-06-14T02:01:46;6.63;;;4.10;;
8466;SDS011;4270;48.148;11.648;2023-06-14T02:04:12;5.40;;;4.30;;
8466;SDS011;4270;48.148;11.648;2023-06-14T02:06:37;7.40;;;4.63;;
8466;SDS011;4270;48.148;11.648;2023-06-14T02:09:02;6.17;;;4.37;;
8466;SDS011;4270;48.148;11.648;2023-06-14T02:11:28;5.30;;;4.10;;
8466;SDS011;4270;48.148;11.648;2023-06-14T02:13:53;5.95;;;4.13;;
8466;SDS011;4270;48.148;11.648;2023-06-14T02:16:18;7.03;;;5.00;;
8466;SDS011;4270;48.148;11.648;2023-06-14T02:18:43;8.68;;;4.80;;
8466;SDS011;4270;48.148;11.648;2023-06-14T02:21:08;7.37;;;4.53;;
8466;SDS011;4270;48.148;11.648;2023-06-14T02:23:33;6.60;;;4.40;;
8466;SDS011;4270;48.148;11.648;2023-06-14T02:25:59;7.70;;;4.20;;
8466;SDS011;4270;48.148;11.648;2023-06-14T02:28:24;6.05;;;4.10;;
8466;SDS011;4270;48.148;11.648;2023-06-14T02:30:49;5.60;;;3.97;;
8466;SDS011;4270;48.148;11.648;2023-06-14T02:33:14;8.40;;;4.77;;
8466;SDS011;4270;48.148;11.648;2023-06-14T02:35:40;6.07;;;4.57;;
8466;SDS011;4270;48.148;11.648;2023-06-14T02:38:05;8.27;;;5.20;;
8466;SDS011;4270;48.148;11.648;2023-06-14T02:40:30;8.57;;;4.93;;
8466;SDS011;4270;48.148;11.648;2023-06-14T02:42:56;9.02;;;4.68;;
8466;SDS011;4270;48.148;11.648;2023-06-14T02:45:21;5.97;;;4.00;;
8466;SDS011;4270;48.148;11.648;2023-06-14T02:47:46;5.30;;;3.90;;
8466;SDS011;4270;48.148;11.648;2023-06-14T02:50:11;7.30;;;5.03;;
8466;SDS011;4270;48.148;11.648;2023-06-14T02:52:36;7.43;;;4.00;;
8466;SDS011;4270;48.148;11.648;2023-06-14T02:55:03;5.67;;;4.27;;
8466;SDS011;4270;48.148;11.648;2023-06-14T02:57:28;6.20;;;4.57;;
8466;SDS011;4270;48.148;11.648;2023-06-14T02:59:53;5.60;;;4.20;;
8466;SDS011;4270;48.148;11.648;2023-06-14T03:02:18;7.50;;;4.70;;
8466;SDS011;4270;48.148;11.648;2023-06-14T03:04:43;6.23;;;5.00;;
8466;SDS011;4270;48.148;11.648;2023-06-14T03:07:09;9.10;;;4.77;;
8466;SDS011;4270;48.148;11.648;2023-06-14T03:09:35;4.60;;;3.80;;
8466;SDS011;4270;48.148;11.648;2023-06-14T03:12:01;9.70;;;4.70;;
8466;SDS011;4270;48.148;11.648;2023-06-14T03:14:28;7.00;;;4.90;;
8466;SDS011;4270;48.148;11.648;2023-06-14T03:16:54;7.87;;;4.77;;
8466;SDS011;4270;48.148;11.648;2023-06-14T03:19:21;7.00;;;4.90;;
8466;SDS011;4270;48.148;11.648;2023-06-14T03:21:46;6.33;;;4.83;;
8466;SDS011;4270;48.148;11.648;2023-06-14T03:24:12;6.50;;;4.80;;
8466;SDS011;4270;48.148;11.648;2023-06-14T03:26:37;6.23;;;4.73;;
8466;SDS011;4270;48.148;11.648;2023-06-14T03:29:02;5.10;;;4.33;;
8466;SDS011;4270;48.148;11.648;2023-06-14T03:31:28;6.60;;;4.68;;
8466;SDS011;4270;48.148;11.648;2023-06-14T03:33:57;5.50;;;4.20;;
8466;SDS011;4270;48.148;11.648;2023-06-14T03:36:22;6.13;;;4.80;;
8466;SDS011;4270;48.148;11.648;2023-06-14T03:38:47;7.60;;;4.88;;
8466;SDS011;4270;48.148;11.648;2023-06-14T03:41:13;7.30;;;4.93;;
8466;SDS011;4270;48.148;11.648;2023-06-14T03:43:38;8.87;;;5.97;;
8466;SDS011;4270;48.148;11.648;2023-06-14T03:46:03;6.10;;;5.18;;
8466;SDS011;4270;48.148;11.648;2023-06-14T03:48:28;11.02;;;5.07;;
8466;SDS011;4270;48.148;11.648;2023-06-14T03:50:53;9.47;;;4.90;;
8466;SDS011;4270;48.148;11.648;2023-06-14T03:53:19;7.23;;;5.13;;
8466;SDS011;4270;48.148;11.648;2023-06-14T03:55:48;8.20;;;4.40;;
8466;SDS011;4270;48.148;11.648;2023-06-14T03:58:13;6.23;;;4.60;;
8466;SDS011;4270;48.148;11.648;2023-06-14T04:00:39;12.03;;;5.40;;
8466;SDS011;4270;48.148;11.648;2023-06-14T04:03:05;6.60;;;4.50;;
8466;SDS011;4270;48.148;11.648;2023-06-14T04:05:30;6.33;;;4.97;;
8466;SDS011;4270;48.148;11.648;2023-06-14T04:07:56;7.80;;;5.23;;
8466;SDS011;4270;48.148;11.648;2023-06-14T04:10:22;6.97;;;4.70;;
8466;SDS011;4270;48.148;11.648;2023-06-14T04:12:47;10.00;;;5.70;;
8466;SDS011;4270;48.148;11.648;2023-06-14T04:15:13;7.37;;;4.67;;
8466;SDS011;4270;48.148;11.648;2023-06-14T04:17:38;7.43;;;5.37;;
8466;SDS011;4270;48.148;11.648;2023-06-14T04:20:04;6.50;;;4.40;;
8466;SDS011;4270;48.148;11.648;2023-06-14T04:22:30;6.60;;;5.23;;
8466;SDS011;4270;48.148;11.648;2023-06-14T04:24:56;6.43;;;5.03;;
8466;SDS011;4270;48.148;11.648;2023-06-14T04:27:22;7.50;;;5.00;;
8466;SDS011;4270;48.148;11.648;2023-06-14T04:29:51;9.53;;;5.37;;
8466;SDS011;4270;48.148;11.648;2023-06-14T04:32:21;6.07;;;5.30;;
8466;SDS011;4270;48.148;11.648;2023-06-14T04:34:46;8.33;;;4.97;;
8466;SDS011;4270;48.148;11.648;2023-06-14T04:37:12;7.00;;;4.63;;
8466;SDS011;4270;48.148;11.648;2023-06-14T04:39:38;5.83;;;4.20;;
8466;SDS011;4270;48.148;11.648;2023-06-14T04:42:03;8.05;;;4.90;;
8466;SDS011;4270;48.148;11.648;2023-06-14T04:44:29;5.90;;;4.47;;
8466;SDS011;4270;48.148;11.648;2023-06-14T04:46:57;7.67;;;4.70;;
8466;SDS011;4270;48.148;11.648;2023-06-14T04:49:23;7.33;;;4.77;;
8466;SDS011;4270;48.148;11.648;2023-06-14T04:51:49;6.60;;;5.23;;
8466;SDS011;4270;48.148;11.648;2023-06-14T04:54:22;5.53;;;4.57;;
8466;SDS011;4270;48.148;11.648;2023-06-14T04:56:47;5.90;;;4.87;;
8466;SDS011;4270;48.148;11.648;2023-06-14T04:59:12;8.30;;;4.87;;
8466;SDS011;4270;48.148;11.648;2023-06-14T05:01:37;11.50;;;4.77;;
8466;SDS011;4270;48.148;11.648;2023-06-14T05:04:03;5.77;;;4.50;;
8466;SDS011;4270;48.148;11.648;2023-06-14T05:06:28;6.43;;;4.93;;
8466;SDS011;4270;48.148;11.648;2023-06-14T05:08:53;8.07;;;5.17;;
8466;SDS011;4270;48.148;11.648;2023-06-14T05:11:19;7.87;;;4.23;;
8466;SDS011;4270;48.148;11.648;2023-06-14T05:13:44;6.23;;;5.10;;
8466;SDS011;4270;48.148;11.648;2023-06-14T05:16:10;6.80;;;4.53;;
8466;SDS011;4270;48.148;11.648;2023-06-14T05:18:36;6.17;;;5.23;;
8466;SDS011;4270;48.148;11.648;2023-06-14T05:21:02;8.83;;;4.10;;
8466;SDS011;4270;48.148;11.648;2023-06-14T05:23:28;4.60;;;4.20;;
8466;SDS011;4270;48.148;11.648;2023-06-14T05:25:53;6.60;;;4.80;;
8466;SDS011;4270;48.148;11.648;2023-06-14T05:28:19;5.70;;;4.00;;
8466;SDS011;4270;48.148;11.648;2023-06-14T05:30:45;4.93;;;4.27;;
8466;SDS011;4270;48.148;11.648;2023-06-14T05:33:10;4.80;;;4.30;;
8466;SDS011;4270;48.148;11.648;2023-06-14T05:35:36;4.80;;;4.27;;
8466;SDS011;4270;48.148;11.648;2023-06-14T05:38:02;12.83;;;5.10;;
8466;SDS011;4270;48.148;11.648;2023-06-14T05:40:28;7.90;;;5.30;;
8466;SDS011;4270;48.148;11.648;2023-06-14T05:42:53;6.23;;;5.30;;
8466;SDS011;4270;48.148;11.648;2023-06-14T05:45:18;7.90;;;5.50;;
8466;SDS011;4270;48.148;11.648;2023-06-14T05:47:43;5.03;;;4.30;;
8466;SDS011;4270;48.148;11.648;2023-06-14T05:50:08;4.80;;;3.83;;
8466;SDS011;4270;48.148;11.648;2023-06-14T05:52:34;6.07;;;4.20;;
8466;SDS011;4270;48.148;11.648;2023-06-14T05:55:00;5.07;;;4.17;;
8466;SDS011;4270;48.148;11.648;2023-06-14T05:57:26;4.70;;;4.00;;
8466;SDS011;4270;48.148;11.648;2023-06-14T05:59:51;4.70;;;4.00;;
8466;SDS011;4270;48.148;11.648;2023-06-14T06:02:16;7.28;;;3.67;;
8466;SDS011;4270;48.148;11.648;2023-06-14T06:04:41;7.93;;;4.27;;
8466;SDS011;4270;48.148;11.648;2023-06-14T06:07:06;6.00;;;3.88;;
8466;SDS011;4270;48.148;11.648;2023-06-14T06:09:32;5.20;;;4.07;;
8466;SDS011;4270;48.148;11.648;2023-06-14T06:11:57;6.10;;;3.67;;
8466;SDS011;4270;48.148;11.648;2023-06-14T06:14:22;4.63;;;4.13;;
8466;SDS011;4270;48.148;11.648;2023-06-14T06:16:47;4.73;;;3.77;;
8466;SDS011;4270;48.148;11.648;2023-06-14T06:19:13;5.87;;;4.30;;
8466;SDS011;4270;48.148;11.648;2023-06-14T06:21:38;6.03;;;3.80;;
8466;SDS011;4270;48.148;11.648;2023-06-14T06:24:04;5.10;;;3.95;;
8466;SDS011;4270;48.148;11.648;2023-06-14T06:26:30;7.43;;;4.00;;
8466;SDS011;4270;48.148;11.648;2023-06-14T06:28:55;6.57;;;4.00;;
8466;SDS011;4270;48.148;11.648;2023-06-14T06:31:22;5.20;;;4.17;;
8466;SDS011;4270;48.148;11.648;2023-06-14T06:33:47;6.07;;;3.87;;
8466;SDS011;4270;48.148;11.648;2023-06-14T06:36:12;7.40;;;3.93;;
8466;SDS011;4270;48.148;11.648;2023-06-14T06:38:37;5.22;;;4.28;;
8466;SDS011;4270;48.148;11.648;2023-06-14T06:41:02;10.10;;;3.93;;
8466;SDS011;4270;48.148;11.648;2023-06-14T06:43:28;6.37;;;4.07;;
8466;SDS011;4270;48.148;11.648;2023-06-14T06:45:53;7.60;;;4.30;;
8466;SDS011;4270;48.148;11.648;2023-06-14T06:48:18;5.93;;;3.83;;
8466;SDS011;4270;48.148;11.648;2023-06-14T06:50:44;5.33;;;4.00;;
8466;SDS011;4270;48.148;11.648;2023-06-14T06:53:09;6.53;;;4.43;;
8466;SDS011;4270;48.148;11.648;2023-06-14T06:55:34;8.03;;;4.30;;
8466;SDS011;4270;48.148;11.648;2023-06-14T06:58:00;8.07;;;4.27;;
8466;SDS011;4270;48.148;11.648;2023-06-14T07:00:25;4.47;;;4.07;;
8466;SDS011;4270;48.148;11.648;2023-06-14T07:02:50;4.50;;;3.87;;
8466;SDS011;4270;48.148;11.648;2023-06-14T07:05:15;6.07;;;3.60;;
8466;SDS011;4270;48.148;11.648;2023-06-14T07:07:41;4.65;;;4.25;;
8466;SDS011;4270;48.148;11.648;2023-06-14T07:10:06;5.50;;;4.20;;
8466;SDS011;4270;48.148;11.648;2023-06-14T07:12:32;4.38;;;3.95;;
8466;SDS011;4270;48.148;11.648;2023-06-14T07:14:58;5.10;;;4.65;;
8466;SDS011;4270;48.148;11.648;2023-06-14T07:17:24;4.22;;;3.05;;
8466;SDS011;4270;48.148;11.648;2023-06-14T07:19:49;3.83;;;3.33;;
8466;SDS011;4270;48.148;11.648;2023-06-14T07:22:15;5.38;;;3.58;;
8466;SDS011;4270;48.148;11.648;2023-06-14T07:24:41;5.87;;;3.97;;
8466;SDS011;4270;48.148;11.648;2023-06-14T07:27:07;5.07;;;3.60;;
8466;SDS011;4270;48.148;11.648;2023-06-14T07:29:32;4.90;;;4.05;;
8466;SDS011;4270;48.148;11.648;2023-06-14T07:31:57;3.85;;;3.40;;
8466;SDS011;4270;48.148;11.648;2023-06-14T07:34:22;5.90;;;3.53;;
8466;SDS011;4270;48.148;11.648;2023-06-14T07:36:47;6.72;;;4.30;;
8466;SDS011;4270;48.148;11.648;2023-06-14T07:39:13;5.10;;;4.13;;
8466;SDS011;4270;48.148;11.648;2023-06-14T07:41:38;4.43;;;3.90;;
8466;SDS011;4270;48.148;11.648;2023-06-14T07:44:03;4.07;;;3.40;;
8466;SDS011;4270;48.148;11.648;2023-06-14T07:46:28;5.47;;;3.90;;
8466;SDS011;4270;48.148;11.648;2023-06-14T07:48:55;13.05;;;5.25;;
8466;SDS011;4270;48.148;11.648;2023-06-14T07:51:20;5.03;;;3.85;;
8466;SDS011;4270;48.148;11.648;2023-06-14T07:53:46;4.65;;;3.70;;
8466;SDS011;4270;48.148;11.648;2023-06-14T07:56:12;4.15;;;3.40;;
8466;SDS011;4270;48.148;11.648;2023-06-14T07:58:37;3.30;;;2.90;;
8466;SDS011;4270;48.148;11.648;2023-06-14T08:01:02;4.30;;;4.00;;
8466;SDS011;4270;48.148;11.648;2023-06-14T08:03:31;6.95;;;3.83;;
8466;SDS011;4270;48.148;11.648;2023-06-14T08:05:56;4.13;;;3.30;;
8466;SDS011;4270;48.148;11.648;2023-06-14T08:08:21;3.95;;;3.55;;
8466;SDS011;4270;48.148;11.648;2023-06-14T08:10:46;3.47;;;3.17;;
8466;SDS011;4270;48.148;11.648;2023-06-14T08:13:11;4.10;;;3.20;;
8466;SDS011;4270;48.148;11.648;2023-06-14T08:15:37;3.50;;;3.10;;
8466;SDS011;4270;48.148;11.648;2023-06-14T08:18:02;2.73;;;2.53;;
8466;SDS011;4270;48.148;11.648;2023-06-14T08:20:27;3.43;;;3.13;;
8466;SDS011;4270;48.148;11.648;2023-06-14T08:22:52;6.63;;;3.42;;
8466;SDS011;4270;48.148;11.648;2023-06-14T08:25:21;3.15;;;2.92;;
8466;SDS011;4270;48.148;11.648;2023-06-14T08:27:47;4.63;;;3.40;;
8466;SDS011;4270;48.148;11.648;2023-06-14T08:30:12;3.40;;;2.88;;
8466;SDS011;4270;48.148;11.648;2023-06-14T08:32:37;3.25;;;2.95;;
8466;SDS011;4270;48.148;11.648;2023-06-14T08:35:02;4.13;;;3.22;;
8466;SDS011;4270;48.148;11.648;2023-06-14T08:37:28;3.75;;;3.25;;
8466;SDS011;4270;48.148;11.648;2023-06-14T08:39:54;4.13;;;3.38;;
8466;SDS011;4270;48.148;11.648;2023-06-14T08:42:21;3.45;;;3.15;;
8466;SDS011;4270;48.148;11.648;2023-06-14T08:44:46;3.38;;;3.08;;
8466;SDS011;4270;48.148;11.648;2023-06-14T08:47:11;3.27;;;3.00;;
8466;SDS011;4270;48.148;11.648;2023-06-14T08:49:37;3.45;;;3.10;;
8466;SDS011;4270;48.148;11.648;2023-06-14T08:52:03;5.07;;;3.20;;
8466;SDS011;4270;48.148;11.648;2023-06-14T08:54:30;4.30;;;3.90;;
8466;SDS011;4270;48.148;11.648;2023-06-14T08:56:56;5.47;;;3.63;;
8466;SDS011;4270;48.148;11.648;2023-06-14T08:59:23;3.60;;;3.30;;
8466;SDS011;4270;48.148;11.648;2023-06-14T09:01:49;8.07;;;5.35;;
8466;SDS011;4270;48.148;11.648;2023-06-14T09:04:17;3.55;;;3.25;;
8466;SDS011;4270;48.148;11.648;2023-06-14T09:06:42;3.80;;;3.50;;
8466;SDS011;4270;48.148;11.648;2023-06-14T09:09:08;6.25;;;3.90;;
8466;SDS011;4270;48.148;11.648;2023-06-14T09:11:34;5.00;;;3.50;;
8466;SDS011;4270;48.148;11.648;2023-06-14T09:14:00;5.32;;;3.60;;
8466;SDS011;4270;48.148;11.648;2023-06-14T09:16:25;4.05;;;3.35;;
8466;SDS011;4270;48.148;11.648;2023-06-14T09:18:50;3.35;;;3.10;;
8466;SDS011;4270;48.148;11.648;2023-06-14T09:21:16;3.43;;;3.23;;
8466;SDS011;4270;48.148;11.648;2023-06-14T09:23:42;3.92;;;3.63;;
8466;SDS011;4270;48.148;11.648;2023-06-14T09:26:11;4.07;;;3.67;;
8466;SDS011;4270;48.148;11.648;2023-06-14T09:28:43;4.45;;;3.47;;
8466;SDS011;4270;48.148;11.648;2023-06-14T09:31:10;4.50;;;3.70;;
8466;SDS011;4270;48.148;11.648;2023-06-14T09:33:35;3.78;;;3.47;;
8466;SDS011;4270;48.148;11.648;2023-06-14T09:36:00;4.15;;;3.75;;
8466;SDS011;4270;48.148;11.648;2023-06-14T09:38:25;5.30;;;3.97;;
8466;SDS011;4270;48.148;11.648;2023-06-14T09:40:51;3.95;;;3.55;;
8466;SDS011;4270;48.148;11.648;2023-06-14T09:43:16;4.68;;;4.20;;
8466;SDS011;4270;48.148;11.648;2023-06-14T09:45:43;3.70;;;3.40;;
8466;SDS011;4270;48.148;11.648;2023-06-14T09:48:10;4.10;;;3.90;;
8466;SDS011;4270;48.148;11.648;2023-06-14T09:50:36;4.80;;;4.40;;
8466;SDS011;4270;48.148;11.648;2023-06-14T09:53:07;5.53;;;4.00;;
8466;SDS011;4270;48.148;11.648;2023-06-14T09:55:35;3.55;;;3.20;;
8466;SDS011;4270;48.148;11.648;2023-06-14T09:58:01;3.92;;;3.63;;
8466;SDS011;4270;48.148;11.648;2023-06-14T10:00:28;4.18;;;3.80;;
8466;SDS011;4270;48.148;11.648;2023-06-14T10:02:57;4.65;;;4.35;;
8466;SDS011;4270;48.148;11.648;2023-06-14T10:05:25;4.80;;;4.00;;
8466;SDS011;4270;48.148;11.648;2023-06-14T10:07:56;4.13;;;3.72;;
8466;SDS011;4270;48.148;11.648;2023-06-14T10:10:23;4.18;;;3.97;;
8466;SDS011;4270;48.148;11.648;2023-06-14T10:12:49;4.55;;;4.15;;
8466;SDS011;4270;48.148;11.648;2023-06-14T10:15:20;3.90;;;3.60;;
8466;SDS011;4270;48.148;11.648;2023-06-14T10:17:50;4.63;;;4.32;;
8466;SDS011;4270;48.148;11.648;2023-06-14T10:20:33;5.57;;;4.13;;
8466;SDS011;4270;48.148;11.648;2023-06-14T10:23:05;6.72;;;4.35;;
8466;SDS011;4270;48.148;11.648;2023-06-14T10:25:32;4.88;;;3.70;;
8466;SDS011;4270;48.148;11.648;2023-06-14T10:28:17;3.90;;;3.60;;
8466;SDS011;4270;48.148;11.648;2023-06-14T10:33:26;4.38;;;3.92;;
8466;SDS011;4270;48.148;11.648;2023-06-14T10:36:06;3.80;;;3.37;;
8466;SDS011;4270;48.148;11.648;2023-06-14T10:38:31;4.40;;;3.70;;
8466;SDS011;4270;48.148;11.648;2023-06-14T10:40:58;6.82;;;3.45;;
8466;SDS011;4270;48.148;11.648;2023-06-14T10:43:23;6.20;;;3.28;;
8466;SDS011;4270;48.148;11.648;2023-06-14T10:48:33;3.55;;;3.03;;
8466;SDS011;4270;48.148;11.648;2023-06-14T10:51:00;3.63;;;3.33;;
8466;SDS011;4270;48.148;11.648;2023-06-14T10:53:26;4.10;;;3.80;;
8466;SDS011;4270;48.148;11.648;2023-06-14T10:55:51;6.45;;;3.65;;
8466;SDS011;4270;48.148;11.648;2023-06-14T10:58:16;7.47;;;3.90;;
8466;SDS011;4270;48.148;11.648;2023-06-14T11:00:41;4.57;;;3.00;;
8466;SDS011;4270;48.148;11.648;2023-06-14T11:05:56;6.23;;;3.50;;
8466;SDS011;4270;48.148;11.648;2023-06-14T11:08:39;7.80;;;3.30;;
8466;SDS011;4270;48.148;11.648;2023-06-14T11:11:05;4.63;;;3.60;;
8466;SDS011;4270;48.148;11.648;2023-06-14T11:13:31;4.03;;;3.73;;
8466;SDS011;4270;48.148;11.648;2023-06-14T11:15:56;5.63;;;4.17;;
8466;SDS011;4270;48.148;11.648;2023-06-14T11:18:22;3.50;;;3.20;;
8466;SDS011;4270;48.148;11.648;2023-06-14T11:20:49;4.00;;;3.40;;
8466;SDS011;4270;48.148;11.648;2023-06-14T11:23:15;3.60;;;3.17;;
8466;SDS011;4270;48.148;11.648;2023-06-14T11:25:40;4.37;;;3.40;;
8466;SDS011;4270;48.148;11.648;2023-06-14T11:28:05;3.67;;;3.27;;
8466;SDS011;4270;48.148;11.648;2023-06-14T11:30:30;3.93;;;3.63;;
8466;SDS011;4270;48.148;11.648;2023-06-14T11:32:56;4.03;;;3.30;;
8466;SDS011;4270;48.148;11.648;2023-06-14T11:35:21;6.10;;;3.97;;
8466;SDS011;4270;48.148;11.648;2023-06-14T11:37:48;3.50;;;3.20;;
8466;SDS011;4270;48.148;11.648;2023-06-14T11:40:13;5.07;;;3.07;;
8466;SDS011;4270;48.148;11.648;2023-06-14T11:42:40;6.67;;;3.60;;
8466;SDS011;4270;48.148;11.648;2023-06-14T11:45:09;4.70;;;3.40;;
8466;SDS011;4270;48.148;11.648;2023-06-14T11:47:35;5.10;;;3.80;;
8466;SDS011;4270;48.148;11.648;2023-06-14T11:50:01;5.07;;;3.50;;
8466;SDS011;4270;48.148;11.648;2023-06-14T11:52:28;4.67;;;3.30;;
8466;SDS011;4270;48.148;11.648;2023-06-14T11:54:53;3.80;;;3.47;;
8466;SDS011;4270;48.148;11.648;2023-06-14T11:57:18;4.93;;;3.40;;
8466;SDS011;4270;48.148;11.648;2023-06-14T11:59:44;3.90;;;3.57;;
8466;SDS011;4270;48.148;11.648;2023-06-14T12:02:09;4.50;;;3.50;;
8466;SDS011;4270;48.148;11.648;2023-06-14T12:04:35;3.83;;;3.53;;
8466;SDS011;4270;48.148;11.648;2023-06-14T12:07:13;3.90;;;3.50;;
8466;SDS011;4270;48.148;11.648;2023-06-14T12:09:42;6.47;;;3.57;;
8466;SDS011;4270;48.148;11.648;2023-06-14T12:12:34;4.53;;;3.13;;
8466;SDS011;4270;48.148;11.648;2023-06-14T12:14:59;6.17;;;4.00;;
8466;SDS011;4270;48.148;11.648;2023-06-14T12:17:25;4.50;;;3.30;;
8466;SDS011;4270;48.148;11.648;2023-06-14T12:19:50;4.60;;;3.93;;
8466;SDS011;4270;48.148;11.648;2023-06-14T12:22:15;4.23;;;3.83;;
8466;SDS011;4270;48.148;11.648;2023-06-14T12:24:44;3.93;;;3.50;;
8466;SDS011;4270;48.148;11.648;2023-06-14T12:27:10;3.60;;;3.30;;
8466;SDS011;4270;48.148;11.648;2023-06-14T12:29:40;4.00;;;3.47;;
8466;SDS011;4270;48.148;11.648;2023-06-14T12:32:05;4.73;;;4.23;;
8466;SDS011;4270;48.148;11.648;2023-06-14T12:34:31;5.37;;;4.63;;
8466;SDS011;4270;48.148;11.648;2023-06-14T12:36:57;5.23;;;4.73;;
8466;SDS011;4270;48.148;11.648;2023-06-14T12:39:23;5.07;;;4.13;;
8466;SDS011;4270;48.148;11.648;2023-06-14T12:41:49;6.23;;;3.90;;
8466;SDS011;4270;48.148;11.648;2023-06-14T12:44:15;4.13;;;3.70;;
8466;SDS011;4270;48.148;11.648;2023-06-14T12:46:43;6.40;;;4.30;;
8466;SDS011;4270;48.148;11.648;2023-06-14T12:49:11;7.37;;;4.10;;
8466;SDS011;4270;48.148;11.648;2023-06-14T12:51:37;5.40;;;4.03;;
8466;SDS011;4270;48.148;11.648;2023-06-14T12:54:03;5.73;;;3.73;;
8466;SDS011;4270;48.148;11.648;2023-06-14T12:56:28;6.50;;;5.00;;
8466;SDS011;4270;48.148;11.648;2023-06-14T12:58:53;4.33;;;3.93;;
8466;SDS011;4270;48.148;11.648;2023-06-14T13:01:18;4.23;;;3.83;;
8466;SDS011;4270;48.148;11.648;2023-06-14T13:03:45;4.20;;;3.73;;
8466;SDS011;4270;48.148;11.648;2023-06-14T13:06:10;5.20;;;4.33;;
8466;SDS011;4270;48.148;11.648;2023-06-14T13:08:36;5.60;;;4.33;;
8466;SDS011;4270;48.148;11.648;2023-06-14T13:11:01;6.17;;;4.33;;
8466;SDS011;4270;48.148;11.648;2023-06-14T13:13:26;5.20;;;4.50;;
8466;SDS011;4270;48.148;11.648;2023-06-14T13:15:51;6.37;;;4.00;;
8466;SDS011;4270;48.148;11.648;2023-06-14T13:18:16;4.80;;;3.87;;
8466;SDS011;4270;48.148;11.648;2023-06-14T13:20:42;5.80;;;4.27;;
8466;SDS011;4270;48.148;11.648;2023-06-14T13:23:07;4.23;;;3.70;;
8466;SDS011;4270;48.148;11.648;2023-06-14T13:25:33;5.77;;;3.70;;
8466;SDS011;4270;48.148;11.648;2023-06-14T13:27:59;4.33;;;3.30;;
8466;SDS011;4270;48.148;11.648;2023-06-14T13:30:24;8.17;;;4.27;;
8466;SDS011;4270;48.148;11.648;2023-06-14T13:32:49;5.00;;;3.77;;
8466;SDS011;4270;48.148;11.648;2023-06-14T13:35:17;5.03;;;4.43;;
8466;SDS011;4270;48.148;11.648;2023-06-14T13:37:42;5.20;;;3.60;;
8466;SDS011;4270;48.148;11.648;2023-06-14T13:40:07;3.53;;;3.20;;
8466;SDS011;4270;48.148;11.648;2023-06-14T13:42:32;3.40;;;3.10;;
8466;SDS011;4270;48.148;11.648;2023-06-14T13:44:58;3.87;;;3.17;;
8466;SDS011;4270;48.148;11.648;2023-06-14T13:47:23;4.13;;;3.10;;
8466;SDS011;4270;48.148;11.648;2023-06-14T13:49:48;5.20;;;3.77;;
8466;SDS011;4270;48.148;11.648;2023-06-14T13:52:14;3.80;;;3.50;;
8466;SDS011;4270;48.148;11.648;2023-06-14T13:54:39;4.07;;;3.77;;
8466;SDS011;4270;48.148;11.648;2023-06-14T13:57:04;4.87;;;3.90;;
8466;SDS011;4270;48.148;11.648;2023-06-14T13:59:29;3.90;;;3.50;;
8466;SDS011;4270;48.148;11.648;2023-06-14T14:01:54;3.63;;;3.17;;
8466;SDS011;4270;48.148;11.648;2023-06-14T14:04:20;3.97;;;3.57;;
8466;SDS011;4270;48.148;11.648;2023-06-14T14:06:45;3.97;;;3.43;;
8466;SDS011;4270;48.148;11.648;2023-06-14T14:09:11;3.77;;;3.47;;
8466;SDS011;4270;48.148;11.648;2023-06-14T14:11:36;3.73;;;3.30;;
8466;SDS011;4270;48.148;11.648;2023-06-14T14:14:01;4.07;;;3.17;;
8466;SDS011;4270;48.148;11.648;2023-06-14T14:16:27;5.73;;;3.27;;
8466;SDS011;4270;48.148;11.648;2023-06-14T14:18:52;4.50;;;3.10;;
8466;SDS011;4270;48.148;11.648;2023-06-14T14:21:17;4.17;;;3.77;;
8466;SDS011;4270;48.148;11.648;2023-06-14T14:23:42;6.70;;;3.90;;
8466;SDS011;4270;48.148;11.648;2023-06-14T14:26:07;3.77;;;3.47;;
8466;SDS011;4270;48.148;11.648;2023-06-14T14:28:32;4.30;;;3.90;;
8466;SDS011;4270;48.148;11.648;2023-06-14T14:30:58;3.53;;;3.23;;
8466;SDS011;4270;48.148;11.648;2023-06-14T14:33:23;6.17;;;3.60;;
8466;SDS011;4270;48.148;11.648;2023-06-14T14:35:48;4.90;;;3.00;;
8466;SDS011;4270;48.148;11.648;2023-06-14T14:38:14;4.13;;;3.60;;
8466;SDS011;4270;48.148;11.648;2023-06-14T14:40:40;5.43;;;3.50;;
8466;SDS011;4270;48.148;11.648;2023-06-14T14:43:06;5.63;;;3.80;;
8466;SDS011;4270;48.148;11.648;2023-06-14T14:45:31;6.07;;;3.70;;
8466;SDS011;4270;48.148;11.648;2023-06-14T14:47:56;3.60;;;3.30;;
8466;SDS011;4270;48.148;11.648;2023-06-14T14:50:21;4.67;;;3.53;;
8466;SDS011;4270;48.148;11.648;2023-06-14T14:52:46;4.97;;;3.60;;
8466;SDS011;4270;48.148;11.648;2023-06-14T14:55:12;4.67;;;3.50;;
8466;SDS011;4270;48.148;11.648;2023-06-14T14:57:37;5.90;;;4.10;;
8466;SDS011;4270;48.148;11.648;2023-06-14T15:00:03;4.53;;;3.10;;
8466;SDS011;4270;48.148;11.648;2023-06-14T15:02:28;4.90;;;3.77;;
8466;SDS011;4270;48.148;11.648;2023-06-14T15:04:53;7.10;;;4.03;;
8466;SDS011;4270;48.148;11.648;2023-06-14T15:07:22;9.20;;;3.90;;